Phoenix, Arizona
Traffic Map
Current Weather Conditions
Phoenix, Arizona
Overcast Light Rain
Overcast
15°
Feels Like: 15°
Wind Chill: 15° Ceiling: 6000
Heat Index: 15° Visibility: 9mi
Dew Point: 14° Wind: 3mph
Humidity: 93% Direction: 80° (E)
Pressure: 29.97in Gusts: 0mph
Raw Report DataKPHX 300751Z 08003KT 9SM -RA FEW013 SCT042 OVC060 15/14 A2997 RMK AO2 SLP140 P0004 T01500139
Traffic Incident Summary
Active as of:
Severity:
Category:
InformationThere was an issue retrieving the traffic information for this location. Please try a different location or try again shortly.
Advertisements
Track Severe Weather on mobile